Time;durP1;ratioP1;P1;durP2;ratioP2;P2;SDS_P1;SDS_P2;PMS_P1;PMS_P2;Temp;Humidity;BMP_temperature;BMP_pressure;BME280_temperature;BME280_humidity;BME280_pressure;Samples;Min_cycle;Max_cycle;Signal;HPM_P1;HPM_P2
2023/05/20 00:00:28;;;;;;;4.07;3.00;;;;;;;;;;5031771;28;20175;-73
2023/05/20 00:02:56;;;;;;;4.37;3.20;;;;;;;;;;5015476;28;20246;-73
2023/05/20 00:05:22;;;;;;;3.80;2.93;;;;;;;;;;5044111;28;20243;-73
2023/05/20 00:07:48;;;;;;;5.30;2.90;;;;;;;;;;5043652;28;20198;-73
2023/05/20 00:10:15;;;;;;;3.87;3.00;;;;;;;;;;5043898;28;20217;-73
2023/05/20 00:12:41;;;;;;;4.53;3.00;;;;;;;;;;5002931;28;20654;-73
2023/05/20 00:15:07;;;;;;;6.90;3.00;;;;;;;;;;5031307;28;20190;-72
2023/05/20 00:17:33;;;;;;;4.53;3.20;;;;;;;;;;5021801;28;20214;-73
2023/05/20 00:19:59;;;;;;;3.83;3.00;;;;;;;;;;5012802;28;20211;-73
2023/05/20 00:22:25;;;;;;;4.17;3.10;;;;;;;;;;5030522;28;20197;-73
2023/05/20 00:24:52;;;;;;;4.33;2.80;;;;;;;;;;5017673;28;20223;-73
2023/05/20 00:27:18;;;;;;;5.20;3.23;;;;;;;;;;5018842;28;20861;-73
2023/05/20 00:29:45;;;;;;;4.47;2.97;;;;;;;;;;5047405;28;20197;-73
2023/05/20 00:32:11;;;;;;;3.80;2.90;;;;;;;;;;5016003;28;21238;-73
2023/05/20 00:34:37;;;;;;;4.53;3.10;;;;;;;;;;5012233;28;20225;-73
2023/05/20 00:37:03;;;;;;;9.83;3.13;;;;;;;;;;5027270;28;20213;-73
2023/05/20 00:39:29;;;;;;;3.77;3.13;;;;;;;;;;5022125;28;20213;-73
2023/05/20 00:41:59;;;;;;;4.27;3.30;;;;;;;;;;5049486;28;20198;-74
2023/05/20 00:44:25;;;;;;;3.97;2.93;;;;;;;;;;5014228;28;20175;-73
2023/05/20 00:46:52;;;;;;;4.00;3.07;;;;;;;;;;5037859;28;20198;-73
2023/05/20 00:49:19;;;;;;;4.40;2.87;;;;;;;;;;5029696;28;20186;-73
2023/05/20 00:51:46;;;;;;;3.47;2.90;;;;;;;;;;5012688;28;20793;-73
2023/05/20 00:54:13;;;;;;;5.00;3.00;;;;;;;;;;5012666;28;20183;-73
2023/05/20 00:56:39;;;;;;;7.13;2.80;;;;;;;;;;5008265;28;20254;-73
2023/05/20 00:59:06;;;;;;;3.83;2.70;;;;;;;;;;5030306;28;20209;-73
2023/05/20 01:01:32;;;;;;;3.60;3.03;;;;;;;;;;5008759;28;20194;-73
2023/05/20 01:03:58;;;;;;;4.27;3.60;;;;;;;;;;5029535;28;20270;-73
2023/05/20 01:06:25;;;;;;;4.33;2.93;;;;;;;;;;5030371;28;20218;-73
2023/05/20 01:08:51;;;;;;;4.97;3.37;;;;;;;;;;5035366;28;20542;-73
2023/05/20 01:11:28;;;;;;;5.47;3.10;;;;;;;;;;5020317;28;20209;-73
2023/05/20 01:13:56;;;;;;;4.80;3.00;;;;;;;;;;5014213;28;20272;-73
2023/05/20 01:16:23;;;;;;;4.37;3.20;;;;;;;;;;5013283;28;20234;-73
2023/05/20 01:18:50;;;;;;;4.30;2.90;;;;;;;;;;5014465;28;20237;-73
2023/05/20 01:21:16;;;;;;;3.37;3.00;;;;;;;;;;5030455;28;20895;-73
2023/05/20 01:23:43;;;;;;;5.50;3.37;;;;;;;;;;4996288;28;20175;-73
2023/05/20 01:26:12;;;;;;;4.93;3.60;;;;;;;;;;5012813;28;20367;-73
2023/05/20 01:28:39;;;;;;;4.67;3.40;;;;;;;;;;5013236;28;20654;-72
2023/05/20 01:31:06;;;;;;;4.17;3.20;;;;;;;;;;5029739;28;20202;-73
2023/05/20 01:33:34;;;;;;;4.00;3.20;;;;;;;;;;5031465;28;20191;-73
2023/05/20 01:36:00;;;;;;;3.47;3.00;;;;;;;;;;5042968;28;20670;-73
2023/05/20 01:38:26;;;;;;;3.80;3.27;;;;;;;;;;5029820;28;20551;-73
2023/05/20 01:40:53;;;;;;;5.07;3.20;;;;;;;;;;5030321;28;20198;-73
2023/05/20 01:43:20;;;;;;;4.53;3.33;;;;;;;;;;5005519;28;20191;-74
2023/05/20 01:45:47;;;;;;;4.77;3.30;;;;;;;;;;5032548;28;20185;-72
2023/05/20 01:48:13;;;;;;;6.37;3.60;;;;;;;;;;5037419;28;20205;-73
2023/05/20 01:50:40;;;;;;;5.40;3.20;;;;;;;;;;5012454;28;20194;-73
2023/05/20 01:53:09;;;;;;;3.90;3.20;;;;;;;;;;5026751;28;20185;-73
2023/05/20 01:55:36;;;;;;;7.07;3.80;;;;;;;;;;5021760;28;20183;-73
2023/05/20 01:58:02;;;;;;;3.70;3.30;;;;;;;;;;5032460;28;20222;-73
2023/05/20 02:00:28;;;;;;;6.17;3.70;;;;;;;;;;5002665;28;20178;-73
2023/05/20 02:02:55;;;;;;;3.70;3.40;;;;;;;;;;5034762;28;20213;-73
2023/05/20 02:05:21;;;;;;;5.67;3.70;;;;;;;;;;5018894;28;20182;-72
2023/05/20 02:07:47;;;;;;;4.00;3.60;;;;;;;;;;5040851;28;20198;-72
2023/05/20 02:10:13;;;;;;;4.47;3.30;;;;;;;;;;5016604;28;20654;-72
2023/05/20 02:12:39;;;;;;;4.50;3.10;;;;;;;;;;5017215;28;20176;-73
2023/05/20 02:15:06;;;;;;;6.33;3.60;;;;;;;;;;5015689;28;20194;-73
2023/05/20 02:17:32;;;;;;;5.17;3.33;;;;;;;;;;5016135;28;20248;-73
2023/05/20 02:19:58;;;;;;;4.60;3.60;;;;;;;;;;5014686;28;20202;-72
2023/05/20 02:22:25;;;;;;;5.13;4.03;;;;;;;;;;5015026;28;20178;-73
2023/05/20 02:24:52;;;;;;;5.37;3.30;;;;;;;;;;5006445;28;20177;-72
2023/05/20 02:27:18;;;;;;;3.60;3.20;;;;;;;;;;5030800;28;20252;-72
2023/05/20 02:29:44;;;;;;;5.17;3.57;;;;;;;;;;5051153;28;20177;-72
2023/05/20 02:32:11;;;;;;;3.90;3.30;;;;;;;;;;5021262;28;20194;-72
2023/05/20 02:34:37;;;;;;;4.77;3.50;;;;;;;;;;5013940;28;20201;-72
2023/05/20 02:37:04;;;;;;;4.17;3.50;;;;;;;;;;5017899;28;20205;-72
2023/05/20 02:39:30;;;;;;;3.90;2.80;;;;;;;;;;5016493;28;20215;-73
2023/05/20 02:41:57;;;;;;;3.17;2.83;;;;;;;;;;5035786;28;20179;-72
2023/05/20 02:44:23;;;;;;;7.23;3.53;;;;;;;;;;5024419;28;20650;-72
2023/05/20 02:46:49;;;;;;;3.90;3.17;;;;;;;;;;5015511;28;20203;-72
2023/05/20 02:49:15;;;;;;;3.77;3.13;;;;;;;;;;5034765;28;20189;-72
2023/05/20 02:51:41;;;;;;;4.00;3.43;;;;;;;;;;5023007;28;20777;-72
2023/05/20 02:54:08;;;;;;;5.33;3.50;;;;;;;;;;5014176;28;20183;-72
2023/05/20 02:56:34;;;;;;;3.80;3.30;;;;;;;;;;5015092;28;20210;-73
2023/05/20 02:59:02;;;;;;;4.20;3.23;;;;;;;;;;5014058;28;20666;-72
2023/05/20 03:01:28;;;;;;;5.10;3.60;;;;;;;;;;5016837;28;20185;-72
2023/05/20 03:03:54;;;;;;;5.00;3.37;;;;;;;;;;5006437;28;20174;-73
2023/05/20 03:06:20;;;;;;;4.77;3.30;;;;;;;;;;5031768;28;20194;-73
2023/05/20 03:08:48;;;;;;;3.57;3.20;;;;;;;;;;5024116;28;20562;-73
2023/05/20 03:11:15;;;;;;;3.90;3.17;;;;;;;;;;5012026;28;20669;-72
2023/05/20 03:13:41;;;;;;;4.90;3.30;;;;;;;;;;5031643;28;20179;-72
2023/05/20 03:16:07;;;;;;;4.47;3.40;;;;;;;;;;5031227;28;20199;-71
2023/05/20 03:18:33;;;;;;;4.93;3.90;;;;;;;;;;5019371;28;20289;-72
2023/05/20 03:20:59;;;;;;;5.77;3.70;;;;;;;;;;5011240;28;20201;-72
2023/05/20 03:23:26;;;;;;;5.30;3.33;;;;;;;;;;4998235;28;20189;-72
2023/05/20 03:25:52;;;;;;;4.03;3.10;;;;;;;;;;5014547;28;20190;-72
2023/05/20 03:28:18;;;;;;;3.73;3.27;;;;;;;;;;5038096;28;20181;-72
2023/05/20 03:30:45;;;;;;;4.60;3.33;;;;;;;;;;5029935;28;20182;-72
2023/05/20 03:33:11;;;;;;;3.27;2.97;;;;;;;;;;5000817;28;20187;-72
2023/05/20 03:35:37;;;;;;;4.33;3.20;;;;;;;;;;5032835;28;20658;-72
2023/05/20 03:38:03;;;;;;;3.60;3.30;;;;;;;;;;5014797;28;20205;-73
2023/05/20 03:40:30;;;;;;;5.77;3.30;;;;;;;;;;5014421;28;20199;-72
2023/05/20 03:42:56;;;;;;;3.57;3.13;;;;;;;;;;4993033;28;20240;-72
2023/05/20 03:45:23;;;;;;;4.17;3.17;;;;;;;;;;5018007;28;20184;-72
2023/05/20 03:48:07;;;;;;;5.33;3.70;;;;;;;;;;5035975;28;20209;-73
2023/05/20 03:50:35;;;;;;;5.07;3.20;;;;;;;;;;5014881;28;20597;-72
2023/05/20 03:53:01;;;;;;;4.27;3.40;;;;;;;;;;5030999;28;20174;-72
2023/05/20 03:55:32;;;;;;;6.70;3.40;;;;;;;;;;5016451;28;20749;-72
2023/05/20 03:58:00;;;;;;;6.43;3.60;;;;;;;;;;5014589;28;20203;-72
2023/05/20 04:00:26;;;;;;;4.27;3.30;;;;;;;;;;5020006;28;20766;-73
2023/05/20 04:02:52;;;;;;;4.53;3.47;;;;;;;;;;5005404;28;20240;-73
2023/05/20 04:05:18;;;;;;;3.57;3.13;;;;;;;;;;5029195;28;20181;-73
2023/05/20 04:07:46;;;;;;;5.67;3.60;;;;;;;;;;5020829;28;20203;-72
2023/05/20 04:10:13;;;;;;;4.87;3.73;;;;;;;;;;5013535;28;20590;-73
2023/05/20 04:12:40;;;;;;;5.07;3.70;;;;;;;;;;5017798;28;20563;-72
2023/05/20 04:15:07;;;;;;;4.83;3.70;;;;;;;;;;5009983;28;20187;-72
2023/05/20 04:17:42;;;;;;;5.37;3.63;;;;;;;;;;5012236;28;20200;-72
2023/05/20 04:20:10;;;;;;;7.20;3.60;;;;;;;;;;5025710;28;20368;-72
2023/05/20 04:22:38;;;;;;;4.63;3.50;;;;;;;;;;5020915;28;20555;-72
2023/05/20 04:25:05;;;;;;;5.70;3.63;;;;;;;;;;5022484;28;20182;-72
2023/05/20 04:27:34;;;;;;;4.17;3.30;;;;;;;;;;5015762;28;20292;-72
2023/05/20 04:30:01;;;;;;;4.87;3.70;;;;;;;;;;5013692;28;20194;-72
2023/05/20 04:32:35;;;;;;;5.40;3.67;;;;;;;;;;5010969;28;20598;-72
2023/05/20 04:35:01;;;;;;;5.63;3.60;;;;;;;;;;5015615;28;20740;-72
2023/05/20 04:37:30;;;;;;;4.13;3.50;;;;;;;;;;4997695;28;20339;-73
2023/05/20 04:39:57;;;;;;;4.73;3.57;;;;;;;;;;5016807;28;20579;-72
2023/05/20 04:42:23;;;;;;;4.47;4.00;;;;;;;;;;5030658;28;20877;-72
2023/05/20 04:44:49;;;;;;;4.17;3.70;;;;;;;;;;5019465;28;20263;-72
2023/05/20 04:47:15;;;;;;;3.87;3.50;;;;;;;;;;5046595;28;20202;-72
2023/05/20 04:49:42;;;;;;;6.63;3.70;;;;;;;;;;5013689;28;20661;-73
2023/05/20 04:52:08;;;;;;;5.13;3.97;;;;;;;;;;5027337;28;20181;-72
2023/05/20 04:54:34;;;;;;;4.67;3.13;;;;;;;;;;5017020;28;20197;-72
2023/05/20 04:57:03;;;;;;;5.90;3.47;;;;;;;;;;5021857;28;20198;-73
2023/05/20 04:59:29;;;;;;;4.33;3.60;;;;;;;;;;5040646;28;20263;-72
2023/05/20 05:01:55;;;;;;;4.07;3.67;;;;;;;;;;5017647;28;20216;-72
2023/05/20 05:04:22;;;;;;;4.57;3.73;;;;;;;;;;5011978;28;20269;-72
2023/05/20 05:06:48;;;;;;;5.50;3.80;;;;;;;;;;5017767;28;20225;-72
2023/05/20 05:09:14;;;;;;;5.10;3.80;;;;;;;;;;5036578;28;20232;-73
2023/05/20 05:11:42;;;;;;;5.50;3.87;;;;;;;;;;5013900;28;20206;-72
2023/05/20 05:14:08;;;;;;;4.83;4.10;;;;;;;;;;4986804;28;20206;-73
2023/05/20 05:16:35;;;;;;;6.17;4.60;;;;;;;;;;5022636;28;20194;-73
2023/05/20 05:19:01;;;;;;;4.93;4.43;;;;;;;;;;5019011;28;20281;-72
2023/05/20 05:21:34;;;;;;;7.00;4.77;;;;;;;;;;5016126;28;20194;-73
2023/05/20 05:24:00;;;;;;;5.97;4.70;;;;;;;;;;5013836;28;20589;-72
2023/05/20 05:26:26;;;;;;;6.97;4.80;;;;;;;;;;5033755;28;20216;-72
2023/05/20 05:28:54;;;;;;;5.03;4.40;;;;;;;;;;5039193;28;20300;-72
2023/05/20 05:31:20;;;;;;;6.43;4.60;;;;;;;;;;5047030;28;20174;-73
2023/05/20 05:33:46;;;;;;;6.37;4.77;;;;;;;;;;5020147;28;20273;-74
2023/05/20 05:36:13;;;;;;;5.90;4.43;;;;;;;;;;5025542;28;20308;-73
2023/05/20 05:38:39;;;;;;;5.60;4.30;;;;;;;;;;5002030;28;20214;-73
2023/05/20 05:41:06;;;;;;;5.83;4.90;;;;;;;;;;5025084;28;20174;-73
2023/05/20 05:43:33;;;;;;;5.20;4.70;;;;;;;;;;5033623;28;20662;-73
2023/05/20 05:45:59;;;;;;;5.37;4.87;;;;;;;;;;5024005;28;20266;-73
2023/05/20 05:48:25;;;;;;;6.47;4.63;;;;;;;;;;5017586;28;20178;-73
2023/05/20 05:50:51;;;;;;;6.40;4.87;;;;;;;;;;5012724;28;20185;-73
2023/05/20 05:53:20;;;;;;;5.63;4.93;;;;;;;;;;5017932;28;20549;-73
2023/05/20 05:55:48;;;;;;;6.37;4.90;;;;;;;;;;5019390;28;20171;-73
2023/05/20 05:58:16;;;;;;;7.83;4.90;;;;;;;;;;5020244;28;20183;-72
2023/05/20 06:00:43;;;;;;;5.57;5.00;;;;;;;;;;5000801;28;20534;-73
2023/05/20 06:03:09;;;;;;;6.40;5.00;;;;;;;;;;5013066;28;20183;-73
2023/05/20 06:05:37;;;;;;;5.97;4.80;;;;;;;;;;5019252;28;20204;-72
2023/05/20 06:08:03;;;;;;;5.80;5.20;;;;;;;;;;5011954;28;20202;-72
2023/05/20 06:10:31;;;;;;;5.27;4.77;;;;;;;;;;5027483;28;20921;-72
2023/05/20 06:12:58;;;;;;;6.43;5.20;;;;;;;;;;5000996;28;20187;-72
2023/05/20 06:15:25;;;;;;;6.83;4.83;;;;;;;;;;5029713;28;20214;-72
2023/05/20 06:17:52;;;;;;;5.27;4.77;;;;;;;;;;5029383;28;20207;-73
2023/05/20 06:20:18;;;;;;;5.83;4.90;;;;;;;;;;5027642;28;20207;-72
2023/05/20 06:22:44;;;;;;;4.77;4.37;;;;;;;;;;5037725;28;20289;-72
2023/05/20 06:25:11;;;;;;;5.80;5.20;;;;;;;;;;5030983;28;20644;-73
2023/05/20 06:27:38;;;;;;;6.17;5.07;;;;;;;;;;5021782;28;20263;-73
2023/05/20 06:30:06;;;;;;;6.63;5.57;;;;;;;;;;5001203;28;20262;-72
2023/05/20 06:32:32;;;;;;;5.80;5.17;;;;;;;;;;5018803;28;20213;-73
2023/05/20 06:34:59;;;;;;;6.27;4.97;;;;;;;;;;5010695;28;20182;-75
2023/05/20 06:37:25;;;;;;;5.40;4.90;;;;;;;;;;5019193;28;20211;-76
2023/05/20 06:39:52;;;;;;;7.57;5.00;;;;;;;;;;5016674;28;20221;-76
2023/05/20 06:42:20;;;;;;;5.57;4.93;;;;;;;;;;4999038;28;20329;-75
2023/05/20 06:44:49;;;;;;;8.77;5.13;;;;;;;;;;5015460;28;20202;-75
2023/05/20 06:47:32;;;;;;;5.03;4.53;;;;;;;;;;5031495;28;20351;-75
2023/05/20 06:49:58;;;;;;;6.60;5.30;;;;;;;;;;5016155;28;20194;-75
2023/05/20 06:52:25;;;;;;;6.43;4.70;;;;;;;;;;5014268;28;20175;-75
2023/05/20 06:54:52;;;;;;;5.17;4.67;;;;;;;;;;5012889;28;20199;-77
2023/05/20 06:57:18;;;;;;;5.70;5.10;;;;;;;;;;5029103;28;20202;-75
2023/05/20 06:59:45;;;;;;;5.10;4.60;;;;;;;;;;5015568;28;20249;-76
2023/05/20 07:02:12;;;;;;;4.57;4.17;;;;;;;;;;5013642;28;20638;-75
2023/05/20 07:04:39;;;;;;;5.23;4.73;;;;;;;;;;5016223;28;20631;-76
2023/05/20 07:07:05;;;;;;;5.47;4.90;;;;;;;;;;5013921;28;20328;-75
2023/05/20 07:09:31;;;;;;;5.17;4.67;;;;;;;;;;5007360;28;20188;-77
2023/05/20 07:11:58;;;;;;;6.60;4.97;;;;;;;;;;5008900;28;20618;-75
2023/05/20 07:14:24;;;;;;;6.27;5.13;;;;;;;;;;5022249;28;20194;-76
2023/05/20 07:16:50;;;;;;;7.73;4.97;;;;;;;;;;5021677;28;20649;-77
2023/05/20 07:19:16;;;;;;;5.87;5.27;;;;;;;;;;5023985;28;21000;-75
2023/05/20 07:21:43;;;;;;;5.40;4.90;;;;;;;;;;5017926;28;20573;-73
2023/05/20 07:24:11;;;;;;;5.53;4.93;;;;;;;;;;5030131;28;20240;-74
2023/05/20 07:26:38;;;;;;;5.60;5.00;;;;;;;;;;5026940;28;20217;-72
2023/05/20 07:29:05;;;;;;;5.93;4.33;;;;;;;;;;5016375;28;20595;-73
2023/05/20 07:31:31;;;;;;;5.33;4.70;;;;;;;;;;5006132;28;20190;-74
2023/05/20 07:33:58;;;;;;;5.73;4.43;;;;;;;;;;5011829;28;20277;-73
2023/05/20 07:36:28;;;;;;;5.20;4.70;;;;;;;;;;5015376;28;20205;-73
2023/05/20 07:38:55;;;;;;;4.80;4.40;;;;;;;;;;5026413;28;20210;-73
2023/05/20 07:41:22;;;;;;;4.97;4.57;;;;;;;;;;5031291;28;20182;-73
2023/05/20 07:43:48;;;;;;;8.30;5.00;;;;;;;;;;5027196;28;20177;-73
2023/05/20 07:46:15;;;;;;;5.37;4.70;;;;;;;;;;5027087;28;20209;-73
2023/05/20 07:48:42;;;;;;;5.57;5.07;;;;;;;;;;4995274;28;20187;-72
2023/05/20 07:51:08;;;;;;;4.93;4.47;;;;;;;;;;5004244;28;20633;-73
2023/05/20 07:53:36;;;;;;;5.57;5.07;;;;;;;;;;5015993;28;20194;-73
2023/05/20 07:56:02;;;;;;;5.30;4.80;;;;;;;;;;5032881;28;20205;-73
2023/05/20 07:58:31;;;;;;;5.80;5.20;;;;;;;;;;5016278;28;20186;-74
2023/05/20 08:00:57;;;;;;;6.03;4.70;;;;;;;;;;5014698;28;20520;-73
2023/05/20 08:03:25;;;;;;;5.27;4.77;;;;;;;;;;5017986;28;20236;-72
2023/05/20 08:05:58;;;;;;;5.30;4.80;;;;;;;;;;4995498;28;20187;-72
2023/05/20 08:08:24;;;;;;;7.23;4.73;;;;;;;;;;5014781;28;20179;-74
2023/05/20 08:11:00;;;;;;;5.70;4.90;;;;;;;;;;5007557;28;20188;-73
2023/05/20 08:13:26;;;;;;;6.83;4.80;;;;;;;;;;5019347;28;20175;-73
2023/05/20 08:15:56;;;;;;;7.37;5.50;;;;;;;;;;5017555;28;20179;-73
2023/05/20 08:18:24;;;;;;;6.70;6.00;;;;;;;;;;5013184;28;20278;-73
2023/05/20 08:20:50;;;;;;;5.77;5.27;;;;;;;;;;5013677;28;20194;-72
2023/05/20 08:23:16;;;;;;;6.17;5.53;;;;;;;;;;5019289;28;20179;-73
2023/05/20 08:25:45;;;;;;;8.20;5.53;;;;;;;;;;5019337;28;20574;-73
2023/05/20 08:28:12;;;;;;;9.17;5.70;;;;;;;;;;5017890;28;20631;-73
2023/05/20 08:30:38;;;;;;;6.63;5.57;;;;;;;;;;5014346;28;20650;-73
2023/05/20 08:33:04;;;;;;;6.77;5.83;;;;;;;;;;5015275;28;20533;-72
2023/05/20 08:35:31;;;;;;;6.40;5.67;;;;;;;;;;5019692;28;20277;-72
2023/05/20 08:37:57;;;;;;;8.63;6.17;;;;;;;;;;5016175;28;20202;-74
2023/05/20 08:40:26;;;;;;;7.03;6.33;;;;;;;;;;5025957;28;20720;-72
2023/05/20 08:42:52;;;;;;;7.70;5.80;;;;;;;;;;5013702;28;20190;-73
2023/05/20 08:45:25;;;;;;;5.83;5.13;;;;;;;;;;5023388;28;20197;-72
2023/05/20 08:47:52;;;;;;;6.30;5.70;;;;;;;;;;5018097;28;20194;-72
2023/05/20 08:50:18;;;;;;;7.50;6.00;;;;;;;;;;5030166;28;20199;-73
2023/05/20 08:52:45;;;;;;;6.70;6.00;;;;;;;;;;5026108;28;20183;-73
2023/05/20 08:55:16;;;;;;;7.47;5.93;;;;;;;;;;5031673;28;20214;-72
2023/05/20 08:57:44;;;;;;;9.70;5.97;;;;;;;;;;5037812;28;20213;-73
2023/05/20 09:00:12;;;;;;;6.17;5.53;;;;;;;;;;5020232;28;20245;-73
2023/05/20 09:02:41;;;;;;;8.17;6.13;;;;;;;;;;5016441;28;20190;-74
2023/05/20 09:05:09;;;;;;;6.10;5.50;;;;;;;;;;5016910;28;20187;-72
2023/05/20 09:07:36;;;;;;;7.13;6.07;;;;;;;;;;5032457;28;20194;-72
2023/05/20 09:10:02;;;;;;;7.57;5.77;;;;;;;;;;5030988;28;20179;-72
2023/05/20 09:12:29;;;;;;;6.70;6.00;;;;;;;;;;5028421;28;20186;-73
2023/05/20 09:14:55;;;;;;;6.30;5.70;;;;;;;;;;5029664;28;20182;-72
2023/05/20 09:17:22;;;;;;;7.43;5.57;;;;;;;;;;5029816;28;20581;-73
2023/05/20 09:19:52;;;;;;;6.40;5.80;;;;;;;;;;5025803;28;20301;-73
2023/05/20 09:22:22;;;;;;;7.23;6.37;;;;;;;;;;5025435;28;20183;-73
2023/05/20 09:24:50;;;;;;;6.13;5.53;;;;;;;;;;5026412;28;20252;-73
2023/05/20 09:27:16;;;;;;;6.97;5.90;;;;;;;;;;5024227;28;20241;-74
2023/05/20 09:29:47;;;;;;;6.30;5.40;;;;;;;;;;5026534;28;20190;-73
2023/05/20 09:32:13;;;;;;;6.87;6.17;;;;;;;;;;5026422;28;20175;-73
2023/05/20 09:34:44;;;;;;;6.77;6.07;;;;;;;;;;5027563;28;20195;-74
2023/05/20 09:37:10;;;;;;;6.70;6.00;;;;;;;;;;5027452;28;20194;-73
2023/05/20 09:39:44;;;;;;;6.47;5.87;;;;;;;;;;5025959;28;20211;-73
2023/05/20 09:42:25;;;;;;;7.77;6.33;;;;;;;;;;5014918;28;20633;-73
2023/05/20 09:44:56;;;;;;;8.43;5.53;;;;;;;;;;5019840;28;21879;-73
2023/05/20 09:47:24;;;;;;;6.33;5.70;;;;;;;;;;5028333;28;20233;-73
2023/05/20 09:49:52;;;;;;;6.80;6.10;;;;;;;;;;5001197;28;20745;-74
2023/05/20 09:52:18;;;;;;;5.93;5.33;;;;;;;;;;5029554;28;20175;-73
2023/05/20 09:54:45;;;;;;;5.80;5.30;;;;;;;;;;5033597;28;20233;-73
2023/05/20 09:57:12;;;;;;;6.93;5.93;;;;;;;;;;5030069;28;20245;-74
2023/05/20 09:59:40;;;;;;;6.33;5.77;;;;;;;;;;5030299;28;20263;-74
2023/05/20 10:02:06;;;;;;;7.67;6.50;;;;;;;;;;5023191;28;20190;-73
2023/05/20 10:04:34;;;;;;;7.30;6.60;;;;;;;;;;5030023;28;20183;-74
2023/05/20 10:07:07;;;;;;;6.77;6.17;;;;;;;;;;5011999;28;20618;-73
2023/05/20 10:09:52;;;;;;;6.83;6.13;;;;;;;;;;5012408;28;20182;-72
2023/05/20 10:12:28;;;;;;;6.73;5.73;;;;;;;;;;5016315;28;20221;-73
2023/05/20 10:15:04;;;;;;;6.50;5.90;;;;;;;;;;5019922;28;20186;-71
2023/05/20 10:17:30;;;;;;;8.23;6.03;;;;;;;;;;5010094;28;20689;-71
2023/05/20 10:19:58;;;;;;;6.30;5.80;;;;;;;;;;5031050;28;20229;-72
2023/05/20 10:22:28;;;;;;;6.27;5.67;;;;;;;;;;5034114;28;20210;-72
2023/05/20 10:25:05;;;;;;;7.67;5.30;;;;;;;;;;5023154;28;20703;-70
2023/05/20 10:27:41;;;;;;;6.80;5.70;;;;;;;;;;5016123;28;20222;-74
2023/05/20 10:30:14;;;;;;;6.70;6.10;;;;;;;;;;5024909;28;20186;-72
2023/05/20 10:32:48;;;;;;;7.10;6.50;;;;;;;;;;5028541;28;20194;-70
2023/05/20 10:35:20;;;;;;;7.43;6.10;;;;;;;;;;5037857;28;20279;-70
2023/05/20 10:37:47;;;;;;;6.80;6.17;;;;;;;;;;5029083;28;20272;-71
2023/05/20 10:40:14;;;;;;;7.33;6.10;;;;;;;;;;5033125;28;20860;-76
2023/05/20 10:42:41;;;;;;;6.57;5.87;;;;;;;;;;5012640;28;20183;-74
2023/05/20 10:45:08;;;;;;;8.43;6.33;;;;;;;;;;5032404;28;20171;-73
2023/05/20 10:47:34;;;;;;;6.47;5.87;;;;;;;;;;5030345;28;20309;-71
2023/05/20 10:50:03;;;;;;;7.87;6.03;;;;;;;;;;5031013;28;20192;-71
2023/05/20 10:52:33;;;;;;;6.90;6.20;;;;;;;;;;5022713;28;20244;-71
2023/05/20 10:55:00;;;;;;;6.60;6.00;;;;;;;;;;5028525;28;20213;-71
2023/05/20 10:57:26;;;;;;;6.43;5.57;;;;;;;;;;5029632;28;20198;-71
2023/05/20 10:59:53;;;;;;;6.67;5.97;;;;;;;;;;5027824;28;20231;-71
2023/05/20 11:02:25;;;;;;;8.30;6.40;;;;;;;;;;5031673;28;20174;-71
2023/05/20 11:04:57;;;;;;;6.70;6.10;;;;;;;;;;5029619;28;20246;-71
2023/05/20 11:07:25;;;;;;;7.00;6.30;;;;;;;;;;5028461;28;20261;-71
2023/05/20 11:09:51;;;;;;;7.57;6.00;;;;;;;;;;5030852;28;20204;-70
2023/05/20 11:12:17;;;;;;;6.63;5.93;;;;;;;;;;5028119;28;20206;-71
2023/05/20 11:14:43;;;;;;;7.20;6.50;;;;;;;;;;5032068;28;20218;-71
2023/05/20 11:17:10;;;;;;;8.03;5.90;;;;;;;;;;5029645;28;20286;-70
2023/05/20 11:19:37;;;;;;;7.40;6.10;;;;;;;;;;5028224;28;20267;-71
2023/05/20 11:22:03;;;;;;;6.60;6.03;;;;;;;;;;5027250;28;20187;-72
2023/05/20 11:24:29;;;;;;;6.70;6.13;;;;;;;;;;5027962;28;20274;-71
2023/05/20 11:26:56;;;;;;;7.10;6.13;;;;;;;;;;5028348;28;20220;-71
2023/05/20 11:29:23;;;;;;;6.90;6.20;;;;;;;;;;5032115;28;20188;-71
2023/05/20 11:31:50;;;;;;;9.03;6.70;;;;;;;;;;5022381;28;20196;-71
2023/05/20 11:34:20;;;;;;;7.07;6.37;;;;;;;;;;5035876;28;20281;-71
2023/05/20 11:36:46;;;;;;;8.17;6.10;;;;;;;;;;5012107;28;21074;-71
2023/05/20 11:39:13;;;;;;;7.57;6.10;;;;;;;;;;5031163;28;20298;-72
2023/05/20 11:41:42;;;;;;;6.73;6.13;;;;;;;;;;5026021;28;20237;-71
2023/05/20 11:44:14;;;;;;;7.97;6.50;;;;;;;;;;5030792;28;20180;-71
2023/05/20 11:46:42;;;;;;;7.03;6.40;;;;;;;;;;5030946;28;20701;-72
2023/05/20 11:49:08;;;;;;;6.87;6.17;;;;;;;;;;5015746;28;20187;-73
2023/05/20 11:51:34;;;;;;;7.23;6.53;;;;;;;;;;5030550;28;20230;-72
2023/05/20 11:54:04;;;;;;;6.80;6.10;;;;;;;;;;5033550;28;20644;-73
2023/05/20 11:56:32;;;;;;;6.80;5.90;;;;;;;;;;5030427;28;20624;-72
2023/05/20 11:59:01;;;;;;;6.83;6.23;;;;;;;;;;5023781;28;20532;-73
2023/05/20 12:01:32;;;;;;;7.70;6.10;;;;;;;;;;5031802;28;20180;-71
2023/05/20 12:03:59;;;;;;;6.50;5.90;;;;;;;;;;5013700;28;20182;-72
2023/05/20 12:06:25;;;;;;;8.27;6.23;;;;;;;;;;5030063;28;20341;-71
2023/05/20 12:08:51;;;;;;;7.07;6.47;;;;;;;;;;5026486;28;21669;-71
2023/05/20 12:11:17;;;;;;;7.83;6.00;;;;;;;;;;5031588;28;20647;-71
2023/05/20 12:13:44;;;;;;;6.97;6.27;;;;;;;;;;5027655;28;20202;-71
2023/05/20 12:16:10;;;;;;;7.00;6.33;;;;;;;;;;5028499;28;20264;-71
2023/05/20 12:18:36;;;;;;;6.53;5.93;;;;;;;;;;5031180;28;20340;-71
2023/05/20 12:21:02;;;;;;;6.37;5.77;;;;;;;;;;5029911;28;20178;-72
2023/05/20 12:23:32;;;;;;;7.47;6.67;;;;;;;;;;5030742;28;20186;-72
2023/05/20 12:25:58;;;;;;;7.20;6.50;;;;;;;;;;5028084;28;20194;-71
2023/05/20 12:28:24;;;;;;;7.20;6.53;;;;;;;;;;5030710;28;20178;-71
2023/05/20 12:30:51;;;;;;;6.97;6.37;;;;;;;;;;5030074;28;20249;-71
2023/05/20 12:33:17;;;;;;;6.50;5.90;;;;;;;;;;5013989;28;20182;-72
2023/05/20 12:35:43;;;;;;;6.90;6.30;;;;;;;;;;5029414;28;20182;-71
2023/05/20 12:38:10;;;;;;;6.50;5.90;;;;;;;;;;5028249;28;20260;-72
2023/05/20 12:40:36;;;;;;;6.60;6.00;;;;;;;;;;5029192;28;20318;-72
2023/05/20 12:43:03;;;;;;;7.00;6.30;;;;;;;;;;5032202;28;20186;-71
2023/05/20 12:45:29;;;;;;;6.73;5.73;;;;;;;;;;5031338;28;20238;-71
2023/05/20 12:47:56;;;;;;;6.43;5.83;;;;;;;;;;5040902;28;20515;-72
2023/05/20 12:50:22;;;;;;;6.97;6.30;;;;;;;;;;5042078;28;20237;-72
2023/05/20 12:52:48;;;;;;;6.80;6.10;;;;;;;;;;5027351;28;20258;-72
2023/05/20 12:55:15;;;;;;;7.70;5.77;;;;;;;;;;5031195;28;20186;-72
2023/05/20 12:57:42;;;;;;;6.20;5.70;;;;;;;;;;5031020;28;20683;-72
2023/05/20 13:00:09;;;;;;;7.70;6.70;;;;;;;;;;5030184;28;20206;-72
2023/05/20 13:02:36;;;;;;;6.37;5.77;;;;;;;;;;5023192;28;20629;-72
2023/05/20 13:05:02;;;;;;;7.00;6.00;;;;;;;;;;5030878;28;20182;-72
2023/05/20 13:07:28;;;;;;;6.60;5.93;;;;;;;;;;5029393;28;20329;-72
2023/05/20 13:09:54;;;;;;;6.10;5.57;;;;;;;;;;5022336;28;20197;-72
2023/05/20 13:12:20;;;;;;;6.50;5.90;;;;;;;;;;5029745;28;20195;-72
2023/05/20 13:14:46;;;;;;;6.13;5.63;;;;;;;;;;5028808;28;20663;-72
2023/05/20 13:17:13;;;;;;;8.97;6.40;;;;;;;;;;5028367;28;20202;-73
2023/05/20 13:19:39;;;;;;;5.93;5.33;;;;;;;;;;5029197;28;20220;-73
2023/05/20 13:22:05;;;;;;;6.97;6.30;;;;;;;;;;5029345;28;20525;-73
2023/05/20 13:24:32;;;;;;;6.50;5.80;;;;;;;;;;5024495;28;20203;-73
2023/05/20 13:26:59;;;;;;;6.17;5.57;;;;;;;;;;5030578;28;20942;-73
2023/05/20 13:29:25;;;;;;;6.70;5.83;;;;;;;;;;5031010;28;20185;-73
2023/05/20 13:31:52;;;;;;;6.03;5.53;;;;;;;;;;5030783;28;20244;-73
2023/05/20 13:34:18;;;;;;;6.13;5.63;;;;;;;;;;4997390;28;20191;-73
2023/05/20 13:36:46;;;;;;;7.97;5.70;;;;;;;;;;5025436;28;20644;-73
2023/05/20 13:39:13;;;;;;;6.00;5.47;;;;;;;;;;5005131;28;20209;-73
2023/05/20 13:41:39;;;;;;;6.10;5.50;;;;;;;;;;5028841;28;20229;-73
2023/05/20 13:44:05;;;;;;;6.03;5.50;;;;;;;;;;5028965;28;20170;-73
2023/05/20 13:46:31;;;;;;;5.73;5.30;;;;;;;;;;5029500;28;20582;-73
2023/05/20 13:48:58;;;;;;;7.57;5.80;;;;;;;;;;5033396;28;20184;-73
2023/05/20 13:51:24;;;;;;;6.03;5.43;;;;;;;;;;5032827;28;20276;-73
2023/05/20 13:53:50;;;;;;;6.10;5.50;;;;;;;;;;5033862;28;20188;-73
2023/05/20 13:56:16;;;;;;;6.47;5.83;;;;;;;;;;5034534;28;20688;-73
2023/05/20 13:58:42;;;;;;;5.93;5.43;;;;;;;;;;5034170;28;20550;-73
2023/05/20 14:01:11;;;;;;;7.53;5.90;;;;;;;;;;5033343;28;20190;-73
2023/05/20 14:03:39;;;;;;;6.60;6.00;;;;;;;;;;5022629;28;20262;-73
2023/05/20 14:06:05;;;;;;;6.40;5.90;;;;;;;;;;5031890;28;20182;-73
2023/05/20 14:08:31;;;;;;;6.07;5.57;;;;;;;;;;5033176;28;20186;-73
2023/05/20 14:10:58;;;;;;;7.17;5.97;;;;;;;;;;5034233;28;20187;-73
2023/05/20 14:13:24;;;;;;;6.90;6.20;;;;;;;;;;5033682;28;20682;-73
2023/05/20 14:15:50;;;;;;;6.57;5.97;;;;;;;;;;5031470;28;20248;-73
2023/05/20 14:18:17;;;;;;;6.67;6.00;;;;;;;;;;5033890;28;20178;-73
2023/05/20 14:20:44;;;;;;;6.67;6.07;;;;;;;;;;5033574;28;20217;-73
2023/05/20 14:23:10;;;;;;;6.00;5.40;;;;;;;;;;5025101;28;20174;-73
2023/05/20 14:25:36;;;;;;;8.40;6.23;;;;;;;;;;5032456;28;20257;-73
2023/05/20 14:28:02;;;;;;;6.67;5.97;;;;;;;;;;5032596;28;20241;-73
2023/05/20 14:30:28;;;;;;;6.37;5.77;;;;;;;;;;5016920;28;20182;-73
2023/05/20 14:32:55;;;;;;;8.03;6.23;;;;;;;;;;5030793;28;20218;-73
2023/05/20 14:35:21;;;;;;;6.97;6.00;;;;;;;;;;5032525;28;20193;-73
2023/05/20 14:37:47;;;;;;;6.80;6.20;;;;;;;;;;5014066;28;20205;-73
2023/05/20 14:40:13;;;;;;;6.80;6.10;;;;;;;;;;5028219;28;20215;-73
2023/05/20 14:42:39;;;;;;;6.77;6.13;;;;;;;;;;5029750;28;20682;-73